Time;durP1;ratioP1;P1;durP2;ratioP2;P2;SDS_P1;SDS_P2;PMS_P1;PMS_P2;Temp;Humidity;BMP_temperature;BMP_pressure;BME280_temperature;BME280_humidity;BME280_pressure;Samples;Min_cycle;Max_cycle;Signal;HPM_P1;HPM_P2
2024/02/19 00:00:24;;;;;;;32.38;4.68;;;8.60;99.90;;;;;;5126710;27;20027;-64
2024/02/19 00:02:51;;;;;;;24.50;3.95;;;8.60;99.90;;;;;;5112642;27;20493;-68
2024/02/19 00:05:16;;;;;;;26.85;4.43;;;8.60;99.90;;;;;;5118700;27;20130;-64
2024/02/19 00:07:42;;;;;;;23.60;3.65;;;8.60;99.90;;;;;;5116037;27;20118;-63
2024/02/19 00:10:08;;;;;;;18.90;3.22;;;8.60;99.90;;;;;;5121615;27;20651;-65
2024/02/19 00:12:34;;;;;;;23.92;3.60;;;8.60;99.90;;;;;;5121033;27;20111;-64
2024/02/19 00:15:00;;;;;;;30.08;3.58;;;8.60;99.90;;;;;;5117476;27;20508;-65
2024/02/19 00:17:26;;;;;;;23.20;3.67;;;8.60;99.90;;;;;;5120691;27;20037;-64
2024/02/19 00:19:52;;;;;;;16.08;3.55;;;8.60;99.90;;;;;;5115270;27;20169;-64
2024/02/19 00:22:17;;;;;;;15.73;2.05;;;8.60;99.90;;;;;;5110822;27;20035;-65
2024/02/19 00:24:44;;;;;;;11.27;1.52;;;8.70;99.90;;;;;;5113640;27;20095;-65
2024/02/19 00:27:09;;;;;;;13.40;2.10;;;8.60;99.90;;;;;;5120244;27;20106;-65
2024/02/19 00:29:35;;;;;;;15.00;2.83;;;8.60;99.90;;;;;;5121426;27;20050;-64
2024/02/19 00:32:02;;;;;;;12.85;2.13;;;8.60;99.90;;;;;;5116120;27;20224;-65
2024/02/19 00:34:28;;;;;;;10.73;2.25;;;8.60;99.90;;;;;;5122102;27;20512;-64
2024/02/19 00:36:54;;;;;;;19.50;2.17;;;8.60;99.90;;;;;;5124061;27;20437;-65
2024/02/19 00:39:20;;;;;;;10.63;1.38;;;8.50;99.90;;;;;;5124834;27;20508;-66
2024/02/19 00:41:45;;;;;;;10.13;1.67;;;8.50;99.90;;;;;;5117385;27;20081;-65
2024/02/19 00:44:12;;;;;;;9.45;1.75;;;8.50;99.90;;;;;;5113308;27;20078;-65
2024/02/19 00:46:38;;;;;;;9.10;1.55;;;8.60;99.90;;;;;;5119197;27;20493;-65
2024/02/19 00:49:03;;;;;;;4.97;1.52;;;8.50;99.90;;;;;;5120697;27;20120;-64
2024/02/19 00:51:29;;;;;;;12.93;2.72;;;8.60;99.90;;;;;;5115486;27;20040;-65
2024/02/19 00:53:55;;;;;;;9.07;1.40;;;8.50;99.90;;;;;;5108203;27;20035;-65
2024/02/19 00:56:20;;;;;;;11.77;1.58;;;8.50;99.90;;;;;;5115296;27;20456;-65
2024/02/19 00:58:46;;;;;;;8.05;1.90;;;8.50;99.90;;;;;;5118452;27;20066;-65
2024/02/19 01:01:12;;;;;;;7.40;1.67;;;8.50;99.90;;;;;;5114036;27;20613;-65
2024/02/19 01:03:38;;;;;;;9.70;1.80;;;8.50;99.90;;;;;;5119026;27;20043;-65
2024/02/19 01:06:04;;;;;;;8.43;1.58;;;8.50;99.90;;;;;;5118678;27;20363;-65
2024/02/19 01:08:29;;;;;;;15.52;1.90;;;8.40;99.90;;;;;;5110970;27;20051;-65
2024/02/19 01:10:55;;;;;;;13.52;1.67;;;8.50;99.90;;;;;;5113368;27;20039;-65
2024/02/19 01:13:21;;;;;;;11.55;2.78;;;8.50;99.90;;;;;;5120837;27;20074;-65
2024/02/19 01:15:47;;;;;;;11.70;2.13;;;8.50;99.90;;;;;;5113436;27;20441;-65
2024/02/19 01:18:12;;;;;;;11.98;1.70;;;8.40;99.90;;;;;;5125231;27;20043;-65
2024/02/19 01:20:38;;;;;;;11.63;1.90;;;8.40;99.90;;;;;;5121225;27;20311;-64
2024/02/19 01:23:04;;;;;;;13.43;1.88;;;8.40;99.90;;;;;;5117575;27;20067;-65
2024/02/19 01:25:29;;;;;;;10.82;1.38;;;8.40;99.90;;;;;;5112775;27;20794;-66
2024/02/19 01:27:55;;;;;;;11.82;2.13;;;8.30;99.90;;;;;;5117033;27;20420;-66
2024/02/19 01:30:21;;;;;;;10.90;1.80;;;8.40;99.90;;;;;;5114086;27;20499;-65
2024/02/19 01:32:47;;;;;;;9.70;1.65;;;8.40;99.90;;;;;;5114844;27;20099;-65
2024/02/19 01:35:13;;;;;;;16.25;2.38;;;8.40;99.90;;;;;;5123033;27;20039;-65
2024/02/19 01:37:39;;;;;;;12.07;1.60;;;8.30;99.90;;;;;;5117165;27;20484;-65
2024/02/19 01:40:09;;;;;;;7.97;1.05;;;8.30;99.90;;;;;;5118614;27;20047;-65
2024/02/19 01:42:35;;;;;;;13.93;1.60;;;8.30;99.90;;;;;;5121119;27;20092;-65
2024/02/19 01:45:02;;;;;;;13.93;1.83;;;8.30;99.90;;;;;;5113173;27;20042;-65
2024/02/19 01:47:32;;;;;;;11.77;1.63;;;8.40;99.90;;;;;;5116486;27;20043;-66
2024/02/19 01:49:58;;;;;;;13.10;2.97;;;8.40;99.90;;;;;;5108284;27;20046;-65
2024/02/19 01:52:25;;;;;;;12.48;1.85;;;8.40;99.90;;;;;;5112039;27;20418;-65
2024/02/19 01:54:52;;;;;;;8.52;1.90;;;8.30;99.90;;;;;;5113086;27;20054;-65
2024/02/19 01:57:18;;;;;;;10.20;1.35;;;8.30;99.90;;;;;;5111156;27;20039;-65
2024/02/19 01:59:45;;;;;;;8.50;1.42;;;8.30;99.90;;;;;;5116077;27;20046;-65
2024/02/19 02:02:12;;;;;;;17.45;1.70;;;8.40;99.90;;;;;;5114406;27;20043;-65
2024/02/19 02:04:39;;;;;;;12.88;2.47;;;8.40;99.90;;;;;;5113814;27;20417;-65
2024/02/19 02:07:05;;;;;;;9.80;2.20;;;8.40;99.90;;;;;;5116929;27;20089;-66
2024/02/19 02:09:31;;;;;;;10.52;2.53;;;8.50;99.90;;;;;;5119077;27;20745;-65
2024/02/19 02:11:57;;;;;;;11.88;2.00;;;8.40;99.90;;;;;;5119923;27;20051;-65
2024/02/19 02:14:23;;;;;;;10.40;3.35;;;8.50;99.90;;;;;;5120880;27;20032;-66
2024/02/19 02:16:49;;;;;;;11.57;2.45;;;8.50;99.90;;;;;;5120948;27;20409;-65
2024/02/19 02:19:17;;;;;;;12.35;2.30;;;8.50;99.90;;;;;;5117786;27;20035;-65
2024/02/19 02:21:44;;;;;;;11.77;1.88;;;8.40;99.90;;;;;;5118236;27;20043;-66
2024/02/19 02:24:10;;;;;;;14.98;1.60;;;8.50;99.90;;;;;;5113547;28;20045;-65
2024/02/19 02:26:39;;;;;;;9.73;2.40;;;8.60;99.90;;;;;;5112974;28;20448;-66
2024/02/19 02:29:06;;;;;;;11.63;2.28;;;8.50;99.90;;;;;;5122786;27;20408;-65
2024/02/19 02:31:32;;;;;;;15.23;2.42;;;8.60;99.90;;;;;;5112406;28;20506;-65
2024/02/19 02:33:58;;;;;;;11.00;2.00;;;8.60;99.90;;;;;;5114628;27;20035;-65
2024/02/19 02:36:24;;;;;;;12.98;1.55;;;8.70;99.90;;;;;;5118869;27;20089;-65
2024/02/19 02:38:50;;;;;;;10.43;1.45;;;8.60;99.90;;;;;;5116418;27;20449;-66
2024/02/19 02:41:17;;;;;;;14.10;1.65;;;8.60;99.90;;;;;;5123695;27;20046;-65
2024/02/19 02:43:43;;;;;;;12.52;2.13;;;8.70;99.90;;;;;;5114726;27;20099;-66
2024/02/19 02:46:08;;;;;;;10.82;1.80;;;8.70;99.90;;;;;;5124950;27;20051;-65
2024/02/19 02:48:34;;;;;;;12.80;1.92;;;8.60;99.90;;;;;;5116582;27;20375;-65
2024/02/19 02:51:00;;;;;;;12.98;1.67;;;8.60;99.90;;;;;;5127722;27;20039;-65
2024/02/19 02:53:26;;;;;;;12.20;1.55;;;8.60;99.90;;;;;;5121660;27;20128;-65
2024/02/19 02:55:51;;;;;;;13.13;1.40;;;8.40;99.90;;;;;;5116741;27;20094;-65
2024/02/19 02:58:17;;;;;;;15.15;2.35;;;8.60;99.90;;;;;;5117485;27;20070;-65
2024/02/19 03:00:43;;;;;;;15.82;1.75;;;8.60;99.90;;;;;;5120267;27;20307;-65
2024/02/19 03:03:09;;;;;;;11.30;1.38;;;8.70;99.90;;;;;;5117078;27;20089;-65
2024/02/19 03:05:36;;;;;;;15.27;2.33;;;8.60;99.90;;;;;;5115745;27;20055;-65
2024/02/19 03:08:02;;;;;;;10.70;2.28;;;8.60;99.90;;;;;;5118698;27;20126;-65
2024/02/19 03:10:28;;;;;;;11.20;2.25;;;8.60;99.90;;;;;;5122224;27;20126;-65
2024/02/19 03:12:54;;;;;;;7.45;1.48;;;8.60;99.90;;;;;;5120868;27;20463;-65
2024/02/19 03:15:19;;;;;;;11.85;1.77;;;8.60;99.90;;;;;;5118926;27;20073;-65
2024/02/19 03:17:45;;;;;;;9.13;1.58;;;8.70;99.90;;;;;;5124063;27;20126;-65
2024/02/19 03:20:13;;;;;;;11.23;2.00;;;8.70;99.90;;;;;;5116605;27;20828;-65
2024/02/19 03:22:42;;;;;;;9.52;1.33;;;8.60;99.90;;;;;;5120475;27;20155;-65
2024/02/19 03:25:08;;;;;;;12.60;1.92;;;8.60;99.90;;;;;;5114618;27;20408;-65
2024/02/19 03:27:35;;;;;;;9.00;1.95;;;8.60;99.90;;;;;;5095581;27;20039;-65
2024/02/19 03:30:01;;;;;;;16.23;1.52;;;8.70;99.90;;;;;;5120509;27;20043;-66
2024/02/19 03:32:26;;;;;;;13.63;1.70;;;8.70;99.90;;;;;;5117533;27;20047;-65
2024/02/19 03:34:52;;;;;;;9.13;1.70;;;8.70;99.90;;;;;;5124351;27;20084;-65
2024/02/19 03:37:18;;;;;;;12.25;1.52;;;8.70;99.90;;;;;;5114480;27;20118;-65
2024/02/19 03:39:46;;;;;;;5.30;1.38;;;8.60;99.90;;;;;;5113678;27;20038;-64
2024/02/19 03:42:12;;;;;;;10.07;1.40;;;8.70;99.90;;;;;;5122533;27;20494;-65
2024/02/19 03:44:38;;;;;;;5.80;0.90;;;8.70;99.90;;;;;;5117893;27;20046;-66
2024/02/19 03:47:03;;;;;;;13.13;2.05;;;8.70;99.90;;;;;;5123669;27;20072;-65
2024/02/19 03:49:29;;;;;;;12.88;1.60;;;8.70;99.90;;;;;;5127036;27;20047;-66
2024/02/19 03:51:55;;;;;;;13.85;1.83;;;8.70;99.90;;;;;;5118200;27;20040;-64
2024/02/19 03:54:21;;;;;;;13.68;1.83;;;8.70;99.90;;;;;;5122590;27;20039;-65
2024/02/19 03:56:48;;;;;;;14.70;1.80;;;8.70;99.90;;;;;;5114933;27;20036;-65
2024/02/19 03:59:16;;;;;;;14.45;2.47;;;8.70;99.90;;;;;;5121972;27;20851;-65
2024/02/19 04:01:41;;;;;;;11.65;2.20;;;8.70;99.90;;;;;;5117500;27;20050;-65
2024/02/19 04:04:07;;;;;;;18.50;2.67;;;8.60;99.90;;;;;;5110549;27;20039;-65
2024/02/19 04:06:33;;;;;;;12.82;2.25;;;8.70;99.90;;;;;;5121467;27;20470;-65
2024/02/19 04:08:58;;;;;;;17.08;2.53;;;8.60;99.90;;;;;;5120441;27;20043;-66
2024/02/19 04:11:24;;;;;;;19.05;2.55;;;8.60;99.90;;;;;;5116290;27;20136;-65
2024/02/19 04:13:50;;;;;;;19.92;3.35;;;8.60;99.90;;;;;;5120242;27;20047;-65
2024/02/19 04:16:16;;;;;;;14.18;3.25;;;8.50;99.90;;;;;;5117965;27;20066;-65
2024/02/19 04:18:41;;;;;;;19.77;2.80;;;8.60;99.90;;;;;;5124202;27;20088;-65
2024/02/19 04:21:07;;;;;;;15.32;3.33;;;8.60;99.90;;;;;;5121532;27;20087;-64
2024/02/19 04:23:33;;;;;;;17.73;2.72;;;8.50;99.90;;;;;;5125271;27;20422;-65
2024/02/19 04:25:59;;;;;;;20.58;2.90;;;8.50;99.90;;;;;;5121169;27;20039;-65
2024/02/19 04:28:25;;;;;;;24.10;4.20;;;8.50;99.90;;;;;;5116907;27;20075;-65
2024/02/19 04:30:51;;;;;;;15.40;2.30;;;8.50;99.90;;;;;;5122503;27;20117;-65
2024/02/19 04:33:16;;;;;;;24.40;3.22;;;8.50;99.90;;;;;;5124973;27;20438;-65
2024/02/19 04:35:42;;;;;;;20.35;3.38;;;8.40;99.90;;;;;;5127502;27;20492;-65
2024/02/19 04:38:08;;;;;;;17.02;3.58;;;8.40;99.90;;;;;;5122408;27;20035;-65
2024/02/19 04:40:33;;;;;;;25.10;4.00;;;8.40;99.90;;;;;;5118825;27;20040;-66
2024/02/19 04:42:59;;;;;;;25.95;3.65;;;8.30;99.90;;;;;;5122457;27;20028;-66
2024/02/19 04:45:25;;;;;;;21.73;4.20;;;8.40;99.90;;;;;;5117980;27;20389;-65
2024/02/19 04:47:50;;;;;;;26.48;3.78;;;8.40;99.90;;;;;;5124922;27;20058;-65
2024/02/19 04:50:16;;;;;;;27.23;3.67;;;8.40;99.90;;;;;;5115678;27;20082;-65
2024/02/19 04:52:42;;;;;;;30.40;3.67;;;8.40;99.90;;;;;;5117263;27;20545;-64
2024/02/19 04:55:08;;;;;;;24.75;3.88;;;8.50;99.90;;;;;;5116005;27;20461;-65
2024/02/19 04:57:34;;;;;;;22.73;3.97;;;8.40;99.90;;;;;;5108057;27;20039;-65
2024/02/19 05:00:00;;;;;;;27.83;4.22;;;8.60;99.90;;;;;;5107708;27;20057;-65
2024/02/19 05:02:25;;;;;;;24.02;3.70;;;8.50;99.90;;;;;;5117229;27;20089;-65
2024/02/19 05:04:51;;;;;;;26.15;3.05;;;8.50;99.90;;;;;;5114648;27;20088;-65
2024/02/19 05:07:17;;;;;;;22.25;3.38;;;8.50;99.90;;;;;;5120654;27;20043;-65
2024/02/19 05:09:42;;;;;;;23.98;3.28;;;8.60;99.90;;;;;;5124805;27;20076;-65
2024/02/19 05:12:08;;;;;;;28.90;5.03;;;8.60;99.90;;;;;;5119575;27;20533;-65
2024/02/19 05:14:34;;;;;;;27.73;4.50;;;8.60;99.90;;;;;;5114209;27;20050;-65
2024/02/19 05:17:00;;;;;;;30.98;4.68;;;8.60;99.90;;;;;;5123870;27;20035;-65
2024/02/19 05:19:26;;;;;;;29.95;5.47;;;8.70;99.90;;;;;;5122386;27;20297;-65
2024/02/19 05:21:53;;;;;;;28.83;4.75;;;8.60;99.90;;;;;;5117503;27;20043;-65
2024/02/19 05:24:19;;;;;;;34.17;4.53;;;8.60;99.90;;;;;;5122775;27;20510;-65
2024/02/19 05:26:45;;;;;;;24.98;3.28;;;8.60;99.90;;;;;;5113949;27;20031;-65
2024/02/19 05:29:11;;;;;;;31.92;4.18;;;8.70;99.90;;;;;;5120433;27;20031;-65
2024/02/19 05:31:38;;;;;;;25.70;4.03;;;8.70;99.90;;;;;;5116994;27;20552;-65
2024/02/19 05:34:05;;;;;;;20.33;4.20;;;8.70;99.90;;;;;;5118600;27;20064;-65
2024/02/19 05:36:32;;;;;;;28.75;5.30;;;8.70;99.90;;;;;;5122103;27;20463;-65
2024/02/19 05:38:58;;;;;;;38.72;4.85;;;8.70;99.90;;;;;;5114762;27;20604;-66
2024/02/19 05:41:24;;;;;;;31.20;4.45;;;8.80;99.90;;;;;;5120485;27;20039;-65
2024/02/19 05:43:50;;;;;;;29.50;5.07;;;8.80;99.90;;;;;;5122266;27;20042;-65
2024/02/19 05:46:17;;;;;;;31.90;4.65;;;8.80;99.90;;;;;;5117351;27;20039;-66
2024/02/19 05:48:43;;;;;;;27.17;5.07;;;8.90;99.90;;;;;;5114034;27;20489;-65
2024/02/19 05:51:10;;;;;;;27.00;4.32;;;8.80;99.90;;;;;;5116471;27;20100;-66
2024/02/19 05:53:36;;;;;;;32.15;5.50;;;8.80;99.90;;;;;;5110406;27;20035;-65
2024/02/19 05:56:04;;;;;;;30.02;4.18;;;8.80;99.90;;;;;;5118280;27;20050;-65
2024/02/19 05:58:30;;;;;;;32.53;5.10;;;8.80;99.90;;;;;;5128391;27;20540;-65
2024/02/19 06:00:56;;;;;;;30.05;4.85;;;8.80;99.90;;;;;;5125126;27;20061;-65
2024/02/19 06:03:24;;;;;;;28.02;4.30;;;8.80;99.90;;;;;;5125459;27;20770;-65
2024/02/19 06:05:50;;;;;;;33.75;5.35;;;8.80;99.90;;;;;;5130083;27;20043;-65
2024/02/19 06:08:16;;;;;;;26.17;4.57;;;8.80;99.90;;;;;;5127444;27;20747;-65
2024/02/19 06:10:45;;;;;;;34.28;5.32;;;8.90;99.90;;;;;;5126244;27;20523;-65
2024/02/19 06:13:12;;;;;;;26.15;4.18;;;8.80;99.90;;;;;;5125401;27;20043;-65
2024/02/19 06:15:37;;;;;;;30.85;4.90;;;8.80;99.90;;;;;;5129745;27;20535;-65
2024/02/19 06:18:03;;;;;;;26.15;4.55;;;8.80;99.90;;;;;;5125362;27;20162;-64
2024/02/19 06:20:29;;;;;;;34.20;4.53;;;8.80;99.90;;;;;;5129162;27;20072;-65
2024/02/19 06:22:55;;;;;;;29.88;4.85;;;8.80;99.90;;;;;;5126506;27;20035;-66
2024/02/19 06:25:21;;;;;;;29.00;4.75;;;8.90;99.90;;;;;;5120175;27;20043;-65
2024/02/19 06:27:46;;;;;;;37.47;5.25;;;8.80;99.90;;;;;;5128257;27;20055;-65
2024/02/19 06:30:12;;;;;;;22.08;4.25;;;8.90;99.90;;;;;;5127909;27;20043;-65
2024/02/19 06:32:38;;;;;;;33.67;5.93;;;8.90;99.90;;;;;;5126064;27;20500;-66
2024/02/19 06:35:04;;;;;;;32.83;4.50;;;8.90;99.90;;;;;;5124864;27;20345;-65
2024/02/19 06:37:30;;;;;;;22.40;4.50;;;8.90;99.90;;;;;;5124832;27;20371;-66
2024/02/19 06:39:56;;;;;;;30.05;4.78;;;8.90;99.90;;;;;;5127353;27;20042;-66
2024/02/19 06:42:22;;;;;;;28.58;5.60;;;9.00;99.90;;;;;;5129678;27;20050;-65
2024/02/19 06:44:48;;;;;;;30.77;4.88;;;9.00;99.90;;;;;;5126561;27;20031;-65
2024/02/19 06:47:14;;;;;;;27.65;5.40;;;9.00;99.90;;;;;;5130115;27;20070;-66
2024/02/19 06:49:40;;;;;;;31.60;6.05;;;8.90;99.90;;;;;;5126780;27;20038;-65
2024/02/19 06:52:06;;;;;;;27.33;5.20;;;9.00;99.90;;;;;;5128524;27;20043;-66
2024/02/19 06:54:32;;;;;;;35.35;5.43;;;8.90;99.90;;;;;;5121166;27;20055;-65
2024/02/19 06:56:58;;;;;;;35.88;5.47;;;9.00;99.90;;;;;;5127868;27;20409;-66
2024/02/19 06:59:23;;;;;;;37.33;5.82;;;9.00;99.90;;;;;;5129913;27;20142;-66
2024/02/19 07:01:49;;;;;;;32.97;5.60;;;9.00;99.90;;;;;;5128235;27;20041;-65
2024/02/19 07:04:15;;;;;;;30.17;6.22;;;9.10;99.90;;;;;;5126466;27;20070;-64
2024/02/19 07:06:41;;;;;;;33.97;5.95;;;9.10;99.90;;;;;;5127963;27;20467;-66
2024/02/19 07:09:07;;;;;;;32.20;6.15;;;9.10;99.90;;;;;;5129580;27;20193;-65
2024/02/19 07:11:32;;;;;;;36.03;6.60;;;9.10;99.90;;;;;;5123219;27;20031;-66
2024/02/19 07:13:58;;;;;;;32.08;6.40;;;9.10;99.90;;;;;;5128925;27;20035;-66
2024/02/19 07:16:24;;;;;;;35.72;7.00;;;9.10;99.90;;;;;;5127526;27;20353;-66
2024/02/19 07:18:50;;;;;;;38.38;6.45;;;9.20;99.90;;;;;;5125869;27;20058;-66
2024/02/19 07:21:17;;;;;;;36.75;6.28;;;9.20;99.90;;;;;;5127825;27;20129;-65
2024/02/19 07:23:43;;;;;;;34.15;6.28;;;9.20;99.90;;;;;;5122839;27;20158;-66
2024/02/19 07:26:09;;;;;;;33.38;6.07;;;9.20;99.90;;;;;;5121972;27;20039;-64
2024/02/19 07:28:35;;;;;;;40.55;7.03;;;9.20;99.90;;;;;;5126370;27;20478;-65
2024/02/19 07:31:00;;;;;;;26.10;5.38;;;9.20;99.90;;;;;;5127624;27;20062;-66
2024/02/19 07:33:29;;;;;;;29.60;6.03;;;9.20;99.90;;;;;;5132344;27;20041;-66
2024/02/19 07:35:55;;;;;;;31.63;5.57;;;9.20;99.90;;;;;;5126796;27;20038;-65
2024/02/19 07:38:20;;;;;;;30.23;4.90;;;9.20;99.90;;;;;;5128941;27;20108;-66
2024/02/19 07:40:46;;;;;;;17.40;4.45;;;9.30;99.90;;;;;;5131045;27;20039;-66
2024/02/19 07:43:12;;;;;;;24.75;5.00;;;9.30;99.90;;;;;;5120215;27;20079;-64
2024/02/19 07:45:39;;;;;;;31.67;5.25;;;9.30;99.90;;;;;;5131098;27;20039;-66
2024/02/19 07:48:07;;;;;;;29.50;5.28;;;9.30;99.90;;;;;;5131009;27;20048;-65
2024/02/19 07:50:35;;;;;;;29.38;5.38;;;9.30;99.90;;;;;;5126616;27;20034;-66
2024/02/19 07:53:01;;;;;;;30.10;5.90;;;9.40;99.90;;;;;;5126216;27;20451;-65
2024/02/19 07:55:27;;;;;;;22.80;4.68;;;9.40;99.90;;;;;;5126487;27;20575;-62
2024/02/19 07:57:53;;;;;;;36.72;5.28;;;9.50;99.90;;;;;;5124257;27;20035;-63
2024/02/19 08:00:19;;;;;;;28.15;5.45;;;9.40;99.90;;;;;;5123421;27;20070;-62
2024/02/19 08:02:45;;;;;;;20.88;4.88;;;9.40;99.90;;;;;;5127777;27;20050;-62
2024/02/19 08:05:11;;;;;;;25.60;4.60;;;9.50;99.90;;;;;;5127352;27;20041;-62
2024/02/19 08:07:36;;;;;;;31.25;5.10;;;9.60;99.90;;;;;;5125849;27;20039;-63
2024/02/19 08:10:03;;;;;;;24.63;5.13;;;9.60;99.90;;;;;;5129054;27;20385;-62
2024/02/19 08:12:29;;;;;;;28.23;4.78;;;9.60;99.90;;;;;;5123771;27;20514;-63
2024/02/19 08:14:55;;;;;;;24.98;5.18;;;9.70;99.90;;;;;;5124114;27;20047;-63
2024/02/19 08:17:20;;;;;;;17.90;3.97;;;9.70;99.90;;;;;;5128659;27;20045;-62
2024/02/19 08:19:46;;;;;;;23.42;4.88;;;9.80;99.90;;;;;;5127869;27;20053;-63
2024/02/19 08:22:12;;;;;;;23.30;4.63;;;9.90;99.90;;;;;;5129959;27;20536;-62
2024/02/19 08:24:37;;;;;;;17.75;3.55;;;9.90;99.90;;;;;;5126081;27;20091;-62
2024/02/19 08:27:03;;;;;;;21.27;4.18;;;10.00;99.90;;;;;;5126808;27;20043;-64
2024/02/19 08:29:29;;;;;;;21.80;5.15;;;9.90;99.90;;;;;;5125782;27;20047;-62
2024/02/19 08:31:56;;;;;;;17.52;4.25;;;9.90;99.90;;;;;;5129932;27;20483;-63
2024/02/19 08:34:22;;;;;;;16.70;4.10;;;10.00;99.90;;;;;;5124900;27;20039;-63
2024/02/19 08:36:48;;;;;;;38.00;4.82;;;10.00;99.90;;;;;;5125668;27;20074;-63
2024/02/19 08:39:14;;;;;;;19.60;4.50;;;10.00;99.90;;;;;;5127492;27;20486;-63
2024/02/19 08:41:41;;;;;;;25.35;6.40;;;10.00;99.90;;;;;;5127702;27;20050;-62
2024/02/19 08:44:07;;;;;;;22.25;5.45;;;10.00;99.90;;;;;;5129055;27;20046;-64
2024/02/19 08:46:32;;;;;;;20.67;5.45;;;10.00;99.90;;;;;;5125767;27;20506;-63
2024/02/19 08:48:58;;;;;;;18.55;4.97;;;10.00;99.90;;;;;;5120308;27;20039;-63
2024/02/19 08:51:24;;;;;;;16.55;5.28;;;10.10;99.90;;;;;;5127267;27;20035;-62
2024/02/19 08:53:50;;;;;;;28.15;4.95;;;10.10;99.90;;;;;;5123484;27;20071;-63
2024/02/19 08:56:15;;;;;;;21.95;4.63;;;10.10;99.90;;;;;;5123237;27;20304;-62
2024/02/19 08:58:41;;;;;;;20.67;4.95;;;10.20;99.90;;;;;;5128073;27;20157;-63
2024/02/19 09:01:10;;;;;;;18.88;4.88;;;10.10;99.90;;;;;;5127139;27;20130;-64
2024/02/19 09:03:39;;;;;;;22.75;4.20;;;10.10;99.90;;;;;;5123465;27;20490;-63
2024/02/19 09:06:06;;;;;;;23.15;4.75;;;10.20;99.90;;;;;;5127013;27;20039;-63
2024/02/19 09:08:32;;;;;;;21.75;4.57;;;10.20;99.90;;;;;;5124598;27;20443;-63
2024/02/19 09:10:58;;;;;;;25.02;5.53;;;10.30;99.90;;;;;;5122542;27;20096;-65
2024/02/19 09:13:24;;;;;;;20.52;4.70;;;10.30;99.90;;;;;;5126707;27;20031;-64
2024/02/19 09:15:50;;;;;;;17.30;4.65;;;10.30;99.90;;;;;;5127859;27;20114;-63
2024/02/19 09:18:16;;;;;;;19.83;4.80;;;10.30;99.90;;;;;;5126751;27;20055;-64
2024/02/19 09:20:41;;;;;;;18.30;4.80;;;10.40;99.90;;;;;;5128515;27;20433;-63
2024/02/19 09:23:07;;;;;;;19.58;4.55;;;10.40;99.90;;;;;;5125811;27;20156;-63
2024/02/19 09:25:33;;;;;;;22.05;4.20;;;10.40;99.90;;;;;;5124376;27;20188;-64
2024/02/19 09:27:59;;;;;;;20.05;4.63;;;10.40;99.90;;;;;;5128378;27;20043;-63
2024/02/19 09:30:25;;;;;;;23.45;4.53;;;10.40;99.90;;;;;;5127202;27;20038;-64
2024/02/19 09:32:50;;;;;;;20.23;5.47;;;10.40;99.90;;;;;;5126101;27;20540;-63
2024/02/19 09:35:16;;;;;;;17.67;4.75;;;10.40;99.90;;;;;;5127690;27;20078;-63
2024/02/19 09:37:43;;;;;;;23.17;4.70;;;10.40;99.90;;;;;;5126826;27;20034;-63
2024/02/19 09:40:12;;;;;;;18.55;5.47;;;10.50;99.90;;;;;;5131188;27;20359;-63
2024/02/19 09:42:38;;;;;;;25.10;5.05;;;10.50;99.90;;;;;;5127067;27;20127;-64
2024/02/19 09:45:05;;;;;;;21.05;5.00;;;10.50;99.90;;;;;;5128328;27;20564;-63
2024/02/19 09:47:32;;;;;;;22.40;6.25;;;10.40;99.90;;;;;;5129733;27;20043;-64
2024/02/19 09:49:58;;;;;;;23.48;6.18;;;10.40;99.90;;;;;;5126122;27;20038;-63
2024/02/19 09:52:25;;;;;;;23.00;7.25;;;10.40;99.90;;;;;;5124337;27;20499;-64
2024/02/19 09:54:51;;;;;;;22.75;7.15;;;10.40;99.90;;;;;;5125903;27;20031;-64
2024/02/19 09:57:18;;;;;;;24.70;6.75;;;10.40;99.90;;;;;;5125740;27;20077;-63
2024/02/19 09:59:45;;;;;;;25.40;8.35;;;10.40;99.90;;;;;;5119670;27;20042;-63
2024/02/19 10:02:12;;;;;;;27.08;7.90;;;10.50;99.90;;;;;;5126370;27;20084;-63
2024/02/19 10:04:40;;;;;;;21.77;7.72;;;10.50;99.90;;;;;;5129210;27;20050;-64
2024/02/19 10:07:07;;;;;;;26.70;7.63;;;10.50;99.90;;;;;;5125046;27;20086;-64
2024/02/19 10:09:32;;;;;;;24.27;7.18;;;10.50;99.90;;;;;;5127820;27;20051;-63
2024/02/19 10:11:58;;;;;;;29.55;7.32;;;10.50;99.90;;;;;;5125022;27;20035;-63
2024/02/19 10:14:26;;;;;;;20.70;7.20;;;10.40;99.90;;;;;;5121700;27;20500;-63
2024/02/19 10:16:53;;;;;;;19.05;7.15;;;10.50;99.90;;;;;;5124727;27;20392;-64
2024/02/19 10:19:19;;;;;;;24.58;7.55;;;10.50;99.90;;;;;;5122859;27;20030;-65
2024/02/19 10:21:50;;;;;;;24.63;7.40;;;10.50;99.90;;;;;;5126090;27;20411;-64
2024/02/19 10:24:17;;;;;;;23.25;7.38;;;10.60;99.90;;;;;;5121056;27;20631;-63
2024/02/19 10:26:47;;;;;;;27.77;6.80;;;10.50;99.90;;;;;;5119657;27;21010;-63
2024/02/19 10:29:14;;;;;;;21.38;6.68;;;10.60;99.90;;;;;;5125434;27;20141;-65
2024/02/19 10:31:41;;;;;;;27.38;7.57;;;10.60;99.90;;;;;;5123701;27;20039;-63
2024/02/19 10:34:09;;;;;;;27.42;6.78;;;10.60;99.90;;;;;;5115278;27;20036;-63
2024/02/19 10:36:35;;;;;;;22.27;6.88;;;10.60;99.90;;;;;;5122344;27;20035;-63
2024/02/19 10:39:03;;;;;;;31.92;6.80;;;10.60;99.90;;;;;;5128924;27;20459;-64
2024/02/19 10:41:29;;;;;;;19.30;6.90;;;10.60;99.90;;;;;;5119858;27;20051;-64
2024/02/19 10:43:56;;;;;;;22.67;6.88;;;10.60;99.90;;;;;;5123229;27;20034;-65
2024/02/19 10:46:23;;;;;;;24.17;7.85;;;10.70;99.90;;;;;;5124134;27;20494;-64
2024/02/19 10:48:52;;;;;;;22.70;7.18;;;10.70;99.90;;;;;;5120717;27;20045;-64
2024/02/19 10:51:19;;;;;;;;;;;10.70;99.90;;;;;;5120360;27;20050;-65
2024/02/19 10:53:45;;;;;;;20.95;7.22;;;10.70;99.90;;;;;;5124833;27;19926;-65
2024/02/19 10:56:19;;;;;;;24.73;7.47;;;10.70;99.90;;;;;;5123376;27;20118;-65
2024/02/19 10:59:03;;;;;;;22.98;6.93;;;10.70;99.90;;;;;;5121241;27;20106;-65
2024/02/19 11:01:48;;;;;;;23.30;6.95;;;10.70;99.90;;;;;;5121163;27;20039;-65
2024/02/19 11:04:18;;;;;;;24.25;7.03;;;10.60;99.90;;;;;;5125838;27;20042;-64
2024/02/19 11:06:54;;;;;;;27.75;7.07;;;10.60;99.90;;;;;;5125842;27;20049;-64
2024/02/19 11:09:21;;;;;;;18.88;7.20;;;10.60;99.90;;;;;;5130237;27;20045;-65
2024/02/19 11:11:57;;;;;;;24.05;7.18;;;10.60;99.90;;;;;;5130019;27;20405;-64
2024/02/19 11:14:24;;;;;;;29.33;8.80;;;10.60;99.90;;;;;;5129204;27;20147;-63
2024/02/19 11:16:51;;;;;;;22.67;8.23;;;10.50;99.90;;;;;;5122688;27;20102;-64
2024/02/19 11:19:18;;;;;;;25.35;8.40;;;10.40;99.90;;;;;;5127171;27;20047;-63
2024/02/19 11:21:45;;;;;;;23.75;7.25;;;10.60;99.90;;;;;;5127265;27;20673;-64
2024/02/19 11:24:11;;;;;;;21.40;7.53;;;10.50;99.90;;;;;;5129725;27;20639;-64
2024/02/19 11:26:41;;;;;;;26.88;7.00;;;10.50;99.90;;;;;;5129025;27;20053;-64
2024/02/19 11:29:15;;;;;;;30.10;8.45;;;10.50;99.90;;;;;;5128426;27;20488;-64
2024/02/19 11:31:41;;;;;;;20.75;6.88;;;10.90;99.90;;;;;;5125920;27;20587;-64
2024/02/19 11:34:22;;;;;;;21.98;7.38;;;10.70;99.90;;;;;;5130853;27;20039;-64
2024/02/19 11:36:47;;;;;;;36.33;8.10;;;10.30;99.90;;;;;;5128902;27;20076;-65
2024/02/19 11:39:13;;;;;;;23.95;7.93;;;10.70;99.90;;;;;;5122704;27;20035;-63
2024/02/19 11:41:43;;;;;;;23.58;7.20;;;10.60;99.90;;;;;;5128270;27;20046;-65
2024/02/19 11:44:12;;;;;;;23.10;8.10;;;10.70;99.90;;;;;;5128065;27;20568;-64
2024/02/19 11:46:40;;;;;;;23.45;7.55;;;10.70;99.90;;;;;;5131491;27;20043;-64
2024/02/19 11:49:10;;;;;;;25.57;7.83;;;10.80;99.90;;;;;;5126509;27;20055;-63
2024/02/19 11:51:38;;;;;;;24.98;7.35;;;10.60;99.90;;;;;;5134152;27;20292;-64
2024/02/19 11:54:05;;;;;;;22.38;7.32;;;10.70;99.90;;;;;;5128466;27;20127;-63
2024/02/19 11:56:50;;;;;;;24.13;7.10;;;10.70;99.90;;;;;;5125556;27;20035;-65
2024/02/19 11:59:17;;;;;;;25.45;8.15;;;10.70;99.90;;;;;;5126029;27;20050;-63
2024/02/19 12:01:46;;;;;;;23.80;7.40;;;10.60;99.90;;;;;;5124805;27;20043;-64
2024/02/19 12:04:15;;;;;;;23.90;6.95;;;10.80;99.90;;;;;;5126768;27;20409;-64
2024/02/19 12:06:42;;;;;;;21.23;7.20;;;10.70;99.90;;;;;;5128575;27;20306;-63
2024/02/19 12:09:08;;;;;;;19.80;7.63;;;10.70;99.90;;;;;;5125743;27;20344;-65
2024/02/19 12:11:35;;;;;;;21.10;6.78;;;10.80;99.90;;;;;;5126340;27;20042;-63
2024/02/19 12:14:04;;;;;;;23.58;6.70;;;10.70;99.90;;;;;;5127518;27;20042;-63
2024/02/19 12:16:30;;;;;;;;;;;10.80;99.90;;;;;;5127178;27;20118;-65
2024/02/19 12:18:56;;;;;;;25.77;6.38;;;10.80;99.90;;;;;;5125754;27;20414;-64
2024/02/19 12:21:23;;;;;;;24.75;7.50;;;10.70;99.90;;;;;;5127387;27;20096;-65
2024/02/19 12:23:52;;;;;;;22.20;6.90;;;10.70;99.90;;;;;;5128551;27;20117;-65
2024/02/19 12:26:22;;;;;;;15.07;6.35;;;10.70;99.90;;;;;;5127023;27;20046;-65
2024/02/19 12:28:49;;;;;;;17.38;6.55;;;10.70;99.90;;;;;;5125725;27;20050;-64
2024/02/19 12:31:15;;;;;;;29.55;6.60;;;10.60;99.90;;;;;;5127745;27;20045;-64
2024/02/19 12:33:44;;;;;;;17.95;5.97;;;10.60;99.90;;;;;;5127223;27;20027;-65
2024/02/19 12:36:12;;;;;;;18.60;6.70;;;10.50;99.90;;;;;;5121704;27;20049;-65
2024/02/19 12:38:45;;;;;;;23.17;6.93;;;10.60;99.90;;;;;;5123618;27;20088;-64
2024/02/19 12:41:12;;;;;;;21.83;6.38;;;10.60;99.90;;;;;;5126571;27;20047;-64